createdAt,value
2022-08-22T00:00:02.693Z,18.34
2022-08-22T00:01:02.932Z,18.32
2022-08-22T00:02:02.602Z,18.29
2022-08-22T00:02:52.897Z,24.24
2022-08-22T00:02:53.142Z,23.68
2022-08-22T00:02:53.248Z,23.48
2022-08-22T00:02:56.592Z,22.70
2022-08-22T00:02:58.682Z,20.29
2022-08-22T00:03:02.493Z,24.96
2022-08-22T00:03:12.288Z,18.59
2022-08-22T00:04:02.591Z,18.21
2022-08-22T00:05:02.508Z,18.19
2022-08-22T00:06:02.426Z,18.17
2022-08-22T00:07:02.099Z,18.16
2022-08-22T00:08:02.084Z,18.14
2022-08-22T00:09:02.046Z,18.10
2022-08-22T00:10:02.573Z,18.08
2022-08-22T00:11:02.529Z,18.08
2022-08-22T00:12:01.983Z,18.06
2022-08-22T00:13:02.563Z,18.04
2022-08-22T00:14:02.473Z,18.03
2022-08-22T00:15:02.358Z,18.00
2022-08-22T00:16:02.233Z,17.99
2022-08-22T00:17:01.889Z,17.99
2022-08-22T00:18:01.779Z,18.00
2022-08-22T00:19:01.688Z,18.00
2022-08-22T00:20:01.657Z,17.99
2022-08-22T00:21:02.010Z,17.99
2022-08-22T00:22:01.942Z,17.98
2022-08-22T00:23:01.974Z,17.97
2022-08-22T00:24:01.838Z,17.93
2022-08-22T00:25:01.757Z,17.91
2022-08-22T00:26:02.000Z,17.85
2022-08-22T00:27:02.542Z,17.78
2022-08-22T00:28:03.005Z,17.74
2022-08-22T00:29:02.609Z,17.70
2022-08-22T00:30:02.488Z,17.66
2022-08-22T00:31:02.883Z,17.63
2022-08-22T00:32:02.124Z,17.58
2022-08-22T00:33:01.893Z,17.55
2022-08-22T00:34:01.908Z,17.56
2022-08-22T00:35:01.865Z,17.55
2022-08-22T00:36:01.895Z,17.59
2022-08-22T00:37:02.567Z,17.60
2022-08-22T00:38:02.504Z,17.62
2022-08-22T00:39:02.391Z,17.61
2022-08-22T00:40:03.182Z,17.62
2022-08-22T00:41:02.517Z,17.61
2022-08-22T00:42:02.695Z,17.59
2022-08-22T00:43:02.317Z,17.63
2022-08-22T00:44:02.570Z,17.62
2022-08-22T00:45:02.489Z,17.63
2022-08-22T00:46:02.381Z,17.63
2022-08-22T00:47:01.677Z,17.65
2022-08-22T00:48:02.215Z,17.65
2022-08-22T00:49:02.140Z,17.66
2022-08-22T00:50:01.954Z,17.66
2022-08-22T00:51:02.078Z,17.64
2022-08-22T00:52:02.679Z,17.63
2022-08-22T00:53:02.886Z,17.62
2022-08-22T00:54:02.490Z,17.61
2022-08-22T00:55:02.388Z,17.59
2022-08-22T00:56:02.337Z,17.60
2022-08-22T00:57:02.914Z,17.59
2022-08-22T00:58:02.782Z,17.56
2022-08-22T00:59:17.985Z,17.54
2022-08-22T01:00:02.815Z,17.54
2022-08-22T01:01:03.075Z,17.53
2022-08-22T01:02:02.162Z,17.52
2022-08-22T01:03:01.878Z,17.52
2022-08-22T01:04:01.851Z,17.48
2022-08-22T01:05:01.989Z,17.47
2022-08-22T01:06:01.981Z,17.43
2022-08-22T01:07:02.717Z,17.42
2022-08-22T01:08:02.620Z,17.41
2022-08-22T01:09:02.544Z,17.42
2022-08-22T01:10:02.862Z,17.39
2022-08-22T01:11:02.384Z,17.37
2022-08-22T01:12:03.162Z,17.36
2022-08-22T01:13:03.129Z,17.35
2022-08-22T01:14:03.016Z,17.34
2022-08-22T01:15:02.986Z,17.32
2022-08-22T01:16:02.861Z,17.28
2022-08-22T01:17:02.498Z,17.26
2022-08-22T01:18:02.412Z,17.25
2022-08-22T01:19:02.423Z,17.25
2022-08-22T01:20:02.515Z,17.23
2022-08-22T01:21:02.517Z,17.21
2022-08-22T01:22:02.768Z,17.18
2022-08-22T01:23:02.677Z,17.16
2022-08-22T01:24:03.210Z,17.13
2022-08-22T01:25:03.094Z,17.11
2022-08-22T01:26:02.969Z,17.09
2022-08-22T01:27:02.600Z,17.06
2022-08-22T01:28:02.576Z,17.05
2022-08-22T01:29:02.778Z,17.04
2022-08-22T01:30:02.400Z,17.07
2022-08-22T01:31:02.379Z,17.09
2022-08-22T01:32:03.361Z,17.10
2022-08-22T01:33:03.005Z,17.10
2022-08-22T01:34:02.910Z,17.11
2022-08-22T01:35:02.870Z,17.11
2022-08-22T01:36:03.296Z,17.11
2022-08-22T01:37:02.684Z,17.10
2022-08-22T01:38:02.799Z,17.10
2022-08-22T01:39:02.805Z,17.10
2022-08-22T01:40:02.856Z,17.05
2022-08-22T01:41:02.865Z,17.04
2022-08-22T01:42:02.421Z,17.02
2022-08-22T01:43:02.023Z,17.02
2022-08-22T01:44:02.034Z,16.98
2022-08-22T01:45:01.931Z,16.98
2022-08-22T01:46:02.488Z,16.97
2022-08-22T01:47:02.823Z,16.97
2022-08-22T01:48:02.788Z,16.98
2022-08-22T01:49:02.523Z,16.96
2022-08-22T01:50:02.448Z,16.94
2022-08-22T01:51:02.547Z,16.93
2022-08-22T01:52:03.027Z,16.89
2022-08-22T01:53:02.505Z,16.87
2022-08-22T01:54:03.101Z,16.83
2022-08-22T01:55:02.737Z,16.79
2022-08-22T01:56:02.633Z,16.75
2022-08-22T01:57:03.258Z,16.72
2022-08-22T01:58:02.973Z,16.71
2022-08-22T01:59:03.224Z,16.67
2022-08-22T02:00:02.679Z,16.62
2022-08-22T02:01:02.802Z,16.61
2022-08-22T02:02:01.795Z,16.59
2022-08-22T02:03:01.917Z,16.57
2022-08-22T02:04:01.933Z,16.55
2022-08-22T02:05:02.200Z,16.54
2022-08-22T02:06:02.186Z,16.53
2022-08-22T02:07:02.338Z,16.53
2022-08-22T02:08:02.461Z,16.56
2022-08-22T02:09:02.650Z,16.55
2022-08-22T02:10:02.564Z,16.53
2022-08-22T02:11:02.342Z,16.53
2022-08-22T02:12:02.327Z,16.52
2022-08-22T02:13:02.898Z,16.50
2022-08-22T02:14:02.730Z,16.49
2022-08-22T02:15:02.617Z,16.49
2022-08-22T02:16:02.735Z,16.48
2022-08-22T02:17:01.876Z,16.48
2022-08-22T02:18:01.806Z,16.45
2022-08-22T02:19:02.124Z,16.42
2022-08-22T02:20:02.106Z,16.37
2022-08-22T02:21:01.621Z,16.34
2022-08-22T02:22:02.571Z,16.30
2022-08-22T02:23:02.247Z,16.30
2022-08-22T02:24:02.193Z,16.30
2022-08-22T02:25:02.741Z,16.33
2022-08-22T02:26:02.449Z,16.31
2022-08-22T02:27:02.517Z,16.31
2022-08-22T02:28:02.999Z,16.29
2022-08-22T02:29:02.651Z,16.28
2022-08-22T02:30:02.461Z,16.26
2022-08-22T02:31:02.342Z,16.26
2022-08-22T02:32:02.147Z,16.26
2022-08-22T02:33:02.095Z,16.25
2022-08-22T02:34:02.395Z,16.28
2022-08-22T02:35:02.317Z,16.27
2022-08-22T02:36:02.309Z,16.26
2022-08-22T02:37:02.235Z,16.27
2022-08-22T02:38:02.199Z,16.27
2022-08-22T02:39:02.175Z,16.27
2022-08-22T02:40:02.193Z,16.27
2022-08-22T02:41:02.128Z,16.26
2022-08-22T02:42:01.780Z,16.24
2022-08-22T02:43:01.962Z,16.22
2022-08-22T02:44:01.857Z,16.21
2022-08-22T02:45:01.743Z,16.20
2022-08-22T02:46:01.630Z,16.17
2022-08-22T02:47:01.914Z,16.16
2022-08-22T02:48:01.809Z,16.11
2022-08-22T02:49:01.695Z,16.11
2022-08-22T02:50:01.751Z,16.10
2022-08-22T02:51:02.223Z,16.09
2022-08-22T02:52:02.028Z,16.05
2022-08-22T02:53:02.293Z,16.04
2022-08-22T02:54:02.256Z,16.04
2022-08-22T02:55:02.221Z,16.00
2022-08-22T02:56:02.186Z,15.99
2022-08-22T02:57:02.007Z,15.95
2022-08-22T02:58:02.143Z,15.91
2022-08-22T02:59:02.036Z,15.86
2022-08-22T03:00:02.026Z,15.83
2022-08-22T03:01:02.047Z,15.81
2022-08-22T03:02:02.283Z,15.79
2022-08-22T03:03:02.131Z,15.78
2022-08-22T03:04:02.762Z,15.78
2022-08-22T03:05:02.408Z,15.78
2022-08-22T03:06:02.264Z,15.75
2022-08-22T03:07:02.881Z,15.74
2022-08-22T03:08:02.753Z,15.72
2022-08-22T03:09:03.357Z,15.74
2022-08-22T03:10:03.002Z,15.70
2022-08-22T03:11:02.879Z,15.72
2022-08-22T03:12:02.087Z,15.71
2022-08-22T03:13:02.053Z,15.69
2022-08-22T03:14:02.142Z,15.67
2022-08-22T03:15:01.962Z,15.65
2022-08-22T03:16:02.519Z,15.64
2022-08-22T03:17:02.155Z,15.62
2022-08-22T03:18:02.039Z,15.60
2022-08-22T03:19:02.296Z,15.57
2022-08-22T03:20:02.021Z,15.55
2022-08-22T03:21:01.935Z,15.54
2022-08-22T03:22:02.555Z,15.53
2022-08-22T03:23:02.648Z,15.51
2022-08-22T03:24:02.623Z,15.48
2022-08-22T03:25:02.520Z,15.45
2022-08-22T03:26:07.351Z,15.45
2022-08-22T03:27:02.262Z,15.45
2022-08-22T03:28:02.465Z,15.44
2022-08-22T03:29:02.589Z,15.45
2022-08-22T03:30:02.364Z,15.44
2022-08-22T03:31:02.231Z,15.43
2022-08-22T03:32:02.817Z,15.40
2022-08-22T03:33:02.545Z,15.37
2022-08-22T03:34:03.144Z,15.34
2022-08-22T03:35:02.761Z,15.31
2022-08-22T03:36:02.682Z,15.27
2022-08-22T03:37:02.880Z,15.25
2022-08-22T03:38:02.786Z,15.23
2022-08-22T03:39:02.830Z,15.22
2022-08-22T03:40:02.898Z,15.19
2022-08-22T03:41:02.866Z,15.17
2022-08-22T03:42:02.751Z,15.15
2022-08-22T03:43:02.426Z,15.12
2022-08-22T03:44:02.510Z,15.11
2022-08-22T03:45:02.644Z,15.08
2022-08-22T03:46:02.261Z,15.05
2022-08-22T03:47:02.903Z,15.00
2022-08-22T03:48:02.621Z,14.96
2022-08-22T03:49:02.974Z,14.94
2022-08-22T03:50:02.950Z,14.91
2022-08-22T03:51:02.585Z,14.90
2022-08-22T03:52:03.138Z,14.92
2022-08-22T03:53:03.028Z,14.92
2022-08-22T03:54:03.328Z,14.92
2022-08-22T03:55:03.201Z,14.93
2022-08-22T03:56:03.083Z,14.91
2022-08-22T03:57:02.697Z,14.91
2022-08-22T03:58:02.582Z,14.93
2022-08-22T03:59:02.472Z,14.93
2022-08-22T04:00:02.583Z,14.95
2022-08-22T04:01:02.736Z,14.96
2022-08-22T04:02:02.977Z,14.93
2022-08-22T04:03:02.651Z,14.93
2022-08-22T04:04:02.540Z,14.94
2022-08-22T04:05:02.552Z,14.94
2022-08-22T04:06:02.629Z,14.95
2022-08-22T04:07:02.871Z,14.95
2022-08-22T04:08:03.542Z,14.95
2022-08-22T04:09:03.316Z,14.96
2022-08-22T04:10:03.161Z,14.98
2022-08-22T04:11:03.434Z,14.95
2022-08-22T04:12:02.957Z,14.95
2022-08-22T04:13:02.849Z,14.93
2022-08-22T04:14:02.669Z,14.91
2022-08-22T04:15:02.587Z,14.92
2022-08-22T04:16:02.780Z,14.87
2022-08-22T04:17:03.426Z,14.84
2022-08-22T04:18:03.368Z,14.79
2022-08-22T04:19:03.389Z,14.78
2022-08-22T04:20:03.298Z,14.76
2022-08-22T04:21:03.201Z,14.74
2022-08-22T04:22:03.193Z,14.70
2022-08-22T04:23:03.201Z,14.65
2022-08-22T04:24:03.159Z,14.63
2022-08-22T04:25:07.542Z,14.63
2022-08-22T04:26:08.240Z,14.63
2022-08-22T04:27:03.276Z,14.64
2022-08-22T04:28:03.333Z,14.64
2022-08-22T04:29:03.579Z,14.62
2022-08-22T04:30:03.127Z,14.62
2022-08-22T04:31:03.142Z,14.61
2022-08-22T04:32:03.206Z,14.61
2022-08-22T04:33:03.227Z,14.60
2022-08-22T04:34:03.049Z,14.60
2022-08-22T04:35:03.016Z,14.59
2022-08-22T04:36:03.036Z,14.57
2022-08-22T04:37:03.713Z,14.58
2022-08-22T04:38:03.266Z,14.56
2022-08-22T04:39:03.265Z,14.54
2022-08-22T04:40:03.396Z,14.50
2022-08-22T04:41:04.702Z,14.49
2022-08-22T04:42:28.810Z,14.46
2022-08-22T04:43:03.537Z,14.44
2022-08-22T04:44:02.580Z,14.40
2022-08-22T04:45:02.703Z,14.38
2022-08-22T04:46:03.340Z,14.37
2022-08-22T04:47:03.115Z,14.41
2022-08-22T04:48:02.561Z,14.45
2022-08-22T04:49:02.588Z,14.46
2022-08-22T04:50:03.248Z,14.47
2022-08-22T04:51:03.048Z,14.48
2022-08-22T04:52:03.698Z,14.47
2022-08-22T04:53:03.497Z,14.47
2022-08-22T04:54:03.491Z,14.46
2022-08-22T04:55:03.611Z,14.45
2022-08-22T04:56:07.296Z,14.45
2022-08-22T04:57:03.234Z,14.44
2022-08-22T04:58:06.415Z,14.43
2022-08-22T04:59:03.226Z,14.40
2022-08-22T05:00:03.203Z,14.40
2022-08-22T05:01:03.001Z,14.39
2022-08-22T05:02:02.151Z,14.43
2022-08-22T05:03:02.296Z,14.43
2022-08-22T05:04:02.372Z,14.44
2022-08-22T05:05:02.449Z,14.44
2022-08-22T05:06:02.536Z,14.41
2022-08-22T05:07:01.968Z,14.38
2022-08-22T05:08:02.088Z,14.37
2022-08-22T05:09:02.220Z,14.36
2022-08-22T05:10:09.121Z,14.33
2022-08-22T05:11:01.655Z,14.31
2022-08-22T05:12:01.655Z,14.31
2022-08-22T05:13:01.698Z,14.29
2022-08-22T05:14:01.814Z,14.25
2022-08-22T05:15:02.099Z,14.23
2022-08-22T05:16:01.661Z,14.23
2022-08-22T05:17:02.218Z,14.22
2022-08-22T05:18:02.344Z,14.20
2022-08-22T05:19:02.395Z,14.19
2022-08-22T05:20:02.306Z,14.18
2022-08-22T05:21:02.330Z,14.19
2022-08-22T05:22:02.066Z,14.20
2022-08-22T05:23:02.096Z,14.21
2022-08-22T05:24:02.554Z,14.21
2022-08-22T05:25:02.356Z,14.21
2022-08-22T05:26:02.561Z,14.21
2022-08-22T05:27:02.348Z,14.19
2022-08-22T05:28:02.846Z,14.17
2022-08-22T05:29:02.699Z,14.17
2022-08-22T05:30:02.294Z,14.18
2022-08-22T05:31:02.329Z,14.18
2022-08-22T05:32:02.419Z,14.17
2022-08-22T05:33:02.426Z,14.15
2022-08-22T05:34:02.383Z,14.13
2022-08-22T05:35:02.726Z,14.13
2022-08-22T05:36:02.498Z,14.12
2022-08-22T05:37:01.938Z,14.10
2022-08-22T05:38:02.161Z,14.10
2022-08-22T05:39:02.312Z,14.10
2022-08-22T05:40:02.283Z,14.10
2022-08-22T05:41:02.264Z,14.11
2022-08-22T05:42:02.314Z,14.13
2022-08-22T05:43:02.261Z,14.17
2022-08-22T05:44:02.151Z,14.19
2022-08-22T05:45:02.297Z,14.22
2022-08-22T05:46:02.352Z,14.26
2022-08-22T05:47:02.004Z,14.28
2022-08-22T05:48:02.030Z,14.30
2022-08-22T05:49:02.149Z,14.33
2022-08-22T05:50:01.876Z,14.37
2022-08-22T05:51:01.977Z,14.41
2022-08-22T05:52:01.968Z,14.45
2022-08-22T05:53:01.928Z,14.50
2022-08-22T05:54:02.029Z,14.56
2022-08-22T05:55:02.337Z,14.62
2022-08-22T05:56:02.452Z,14.66
2022-08-22T05:57:04.966Z,14.72
2022-08-22T05:58:02.538Z,14.76
2022-08-22T05:59:02.585Z,14.82
2022-08-22T06:00:02.624Z,14.89
2022-08-22T06:01:02.535Z,14.94
2022-08-22T06:02:04.048Z,15.01
2022-08-22T06:03:03.892Z,15.08
2022-08-22T06:04:03.662Z,15.15
2022-08-22T06:05:05.027Z,15.23
2022-08-22T06:06:03.940Z,15.31
2022-08-22T06:07:02.683Z,15.38
2022-08-22T06:08:02.824Z,15.46
2022-08-22T06:09:02.905Z,15.52
2022-08-22T06:10:02.916Z,15.58
2022-08-22T06:11:02.964Z,15.65
2022-08-22T06:12:03.045Z,15.72
2022-08-22T06:13:02.818Z,15.79
2022-08-22T06:14:03.085Z,15.86
2022-08-22T06:15:02.963Z,15.92
2022-08-22T06:16:03.020Z,15.99
2022-08-22T06:17:03.278Z,16.06
2022-08-22T06:18:03.347Z,16.14
2022-08-22T06:19:03.155Z,16.21
2022-08-22T06:20:03.228Z,16.28
2022-08-22T06:21:03.013Z,16.36
2022-08-22T06:22:02.897Z,16.42
2022-08-22T06:23:02.960Z,16.49
2022-08-22T06:24:02.958Z,16.56
2022-08-22T06:25:03.110Z,16.63
2022-08-22T06:26:02.927Z,16.70
2022-08-22T06:27:03.278Z,16.79
2022-08-22T06:28:03.284Z,16.87
2022-08-22T06:29:03.419Z,16.95
2022-08-22T06:30:04.094Z,17.02
2022-08-22T06:31:03.392Z,17.10
2022-08-22T06:32:03.648Z,17.19
2022-08-22T06:33:03.598Z,17.26
2022-08-22T06:34:03.582Z,17.32
2022-08-22T06:35:03.901Z,17.39
2022-08-22T06:36:03.632Z,17.46
2022-08-22T06:37:03.721Z,17.55
2022-08-22T06:38:03.807Z,17.62
2022-08-22T06:39:03.931Z,17.70
2022-08-22T06:40:03.484Z,17.78
2022-08-22T06:41:03.556Z,17.85
2022-08-22T06:42:03.122Z,17.92
2022-08-22T06:43:03.282Z,17.99
2022-08-22T06:44:03.405Z,18.07
2022-08-22T06:45:03.618Z,18.16
2022-08-22T06:46:03.560Z,18.23
2022-08-22T06:47:03.737Z,18.30
2022-08-22T06:48:03.812Z,18.38
2022-08-22T06:49:03.814Z,18.47
2022-08-22T06:50:03.335Z,18.55
2022-08-22T06:51:03.344Z,18.63
2022-08-22T06:52:03.244Z,18.70
2022-08-22T06:53:03.213Z,18.80
2022-08-22T06:54:03.365Z,18.88
2022-08-22T06:55:03.235Z,18.96
2022-08-22T06:56:03.453Z,19.04
2022-08-22T06:57:03.308Z,19.13
2022-08-22T06:58:03.517Z,19.21
2022-08-22T06:59:03.470Z,19.28
2022-08-22T07:00:03.421Z,19.36
2022-08-22T07:01:11.521Z,19.42
2022-08-22T07:02:02.934Z,19.49
2022-08-22T07:03:02.884Z,19.53
2022-08-22T07:04:02.461Z,19.60
2022-08-22T07:05:02.888Z,19.66
2022-08-22T07:06:02.733Z,19.74
2022-08-22T07:07:02.976Z,19.83
2022-08-22T07:08:02.944Z,19.89
2022-08-22T07:09:06.196Z,19.96
2022-08-22T07:10:02.775Z,20.01
2022-08-22T07:11:02.871Z,20.07
2022-08-22T07:12:03.259Z,20.13
2022-08-22T07:13:03.420Z,20.21
2022-08-22T07:14:03.342Z,20.27
2022-08-22T07:15:03.150Z,20.34
2022-08-22T07:16:02.899Z,20.40
2022-08-22T07:17:02.777Z,20.47
2022-08-22T07:18:02.301Z,20.53
2022-08-22T07:19:02.373Z,20.60
2022-08-22T07:20:02.278Z,20.68
2022-08-22T07:21:02.831Z,20.71
2022-08-22T07:22:03.044Z,20.78
2022-08-22T07:23:02.578Z,20.85
2022-08-22T07:24:02.771Z,20.93
2022-08-22T07:25:02.831Z,20.96
2022-08-22T07:26:03.134Z,21.02
2022-08-22T07:27:04.795Z,21.08
2022-08-22T07:28:03.718Z,21.15
2022-08-22T07:29:03.356Z,21.21
2022-08-22T07:30:04.088Z,21.26
2022-08-22T07:31:03.419Z,21.28
2022-08-22T07:32:03.252Z,21.32
2022-08-22T07:33:19.017Z,21.33
2022-08-22T07:34:02.798Z,21.38
2022-08-22T07:35:02.939Z,21.42
2022-08-22T07:36:03.066Z,21.45
2022-08-22T07:37:03.190Z,21.45
2022-08-22T07:38:03.382Z,21.46
2022-08-22T07:39:03.792Z,21.40
2022-08-22T07:40:03.583Z,21.36
2022-08-22T07:41:03.613Z,21.34
2022-08-22T07:42:02.915Z,21.37
2022-08-22T07:43:03.105Z,21.39
2022-08-22T07:44:03.361Z,21.43
2022-08-22T07:45:03.443Z,21.46
2022-08-22T07:46:03.328Z,21.47
2022-08-22T07:47:02.911Z,21.44
2022-08-22T07:48:03.099Z,21.50
2022-08-22T07:49:10.284Z,21.55
2022-08-22T07:50:02.645Z,21.58
2022-08-22T07:51:02.590Z,21.62
2022-08-22T07:52:02.916Z,21.68
2022-08-22T07:53:03.051Z,21.75
2022-08-22T07:54:03.071Z,21.80
2022-08-22T07:55:02.958Z,21.88
2022-08-22T07:56:03.474Z,21.95
2022-08-22T07:57:02.608Z,21.98
2022-08-22T07:58:03.931Z,22.00
2022-08-22T07:59:05.749Z,21.99
2022-08-22T08:00:03.205Z,22.01
2022-08-22T08:01:03.094Z,22.08
2022-08-22T08:02:02.736Z,22.14
2022-08-22T08:03:02.872Z,22.19
2022-08-22T08:04:03.142Z,22.20
2022-08-22T08:05:03.081Z,22.21
2022-08-22T08:06:03.190Z,22.15
2022-08-22T08:07:02.855Z,22.14
2022-08-22T08:08:02.930Z,22.15
2022-08-22T08:09:02.975Z,22.18
2022-08-22T08:10:03.121Z,22.20
2022-08-22T08:11:03.281Z,22.23
2022-08-22T08:12:03.379Z,22.27
2022-08-22T08:13:03.383Z,22.30
2022-08-22T08:14:03.715Z,22.35
2022-08-22T08:15:03.669Z,22.40
2022-08-22T08:16:03.396Z,22.43
2022-08-22T08:17:02.748Z,22.48
2022-08-22T08:18:02.867Z,22.48
2022-08-22T08:19:02.946Z,22.54
2022-08-22T08:20:03.020Z,22.59
2022-08-22T08:21:03.205Z,22.65
2022-08-22T08:22:03.230Z,22.73
2022-08-22T08:23:03.536Z,22.81
2022-08-22T08:24:03.638Z,22.89
2022-08-22T08:25:03.684Z,22.95
2022-08-22T08:26:03.837Z,23.03
2022-08-22T08:27:02.797Z,23.08
2022-08-22T08:28:02.929Z,23.16
2022-08-22T08:29:03.082Z,23.24
2022-08-22T08:30:03.087Z,23.30
2022-08-22T08:31:03.221Z,23.38
2022-08-22T08:32:02.944Z,23.47
2022-08-22T08:33:24.959Z,23.56
2022-08-22T08:34:03.188Z,23.59
2022-08-22T08:35:03.279Z,23.63
2022-08-22T08:36:03.908Z,23.69
2022-08-22T08:37:03.073Z,23.75
2022-08-22T08:38:03.197Z,23.85
2022-08-22T08:39:03.036Z,23.92
2022-08-22T08:40:03.191Z,23.99
2022-08-22T08:41:03.256Z,24.10
2022-08-22T08:42:03.174Z,24.19
2022-08-22T08:43:03.546Z,24.28
2022-08-22T08:44:03.149Z,24.38
2022-08-22T08:45:03.448Z,24.47
2022-08-22T08:46:03.580Z,24.54
2022-08-22T08:47:03.700Z,24.58
2022-08-22T08:48:03.654Z,24.63
2022-08-22T08:50:04.233Z,24.75
2022-08-22T08:51:04.118Z,24.81
2022-08-22T08:52:03.016Z,24.86
2022-08-22T08:53:03.205Z,24.93
2022-08-22T08:54:03.338Z,24.99
2022-08-22T08:55:15.906Z,25.06
2022-08-22T08:56:03.181Z,25.08
2022-08-22T08:57:03.348Z,25.11
2022-08-22T08:58:06.785Z,25.16
2022-08-22T08:59:03.663Z,25.17
2022-08-22T09:00:03.781Z,25.22
2022-08-22T09:01:03.664Z,25.26
2022-08-22T09:02:01.889Z,25.31
2022-08-22T09:03:07.017Z,25.39
2022-08-22T09:04:01.975Z,25.45
2022-08-22T09:05:02.118Z,25.42
2022-08-22T09:06:01.788Z,25.43
2022-08-22T09:07:02.567Z,25.46
2022-08-22T09:08:02.575Z,25.53
2022-08-22T09:09:02.724Z,25.57
2022-08-22T09:10:02.852Z,25.61
2022-08-22T09:11:02.841Z,25.64
2022-08-22T09:12:02.995Z,25.72
2022-08-22T09:13:12.245Z,25.78
2022-08-22T09:14:03.037Z,25.83
2022-08-22T09:15:02.922Z,25.89
2022-08-22T09:16:05.268Z,25.94
2022-08-22T09:17:02.151Z,25.94
2022-08-22T09:18:02.039Z,25.96
2022-08-22T09:19:02.330Z,26.03
2022-08-22T09:20:02.186Z,26.08
2022-08-22T09:21:02.338Z,26.14
2022-08-22T09:22:02.369Z,26.19
2022-08-22T09:23:02.195Z,26.19
2022-08-22T09:24:02.318Z,26.27
2022-08-22T09:25:06.271Z,26.34
2022-08-22T09:26:02.517Z,26.40
2022-08-22T09:27:02.456Z,26.44
2022-08-22T09:28:02.631Z,26.52
2022-08-22T09:29:02.538Z,26.57
2022-08-22T09:30:02.576Z,26.64
2022-08-22T09:31:02.597Z,26.72
2022-08-22T09:32:02.524Z,26.79
2022-08-22T09:33:02.258Z,26.85
2022-08-22T09:34:05.214Z,26.91
2022-08-22T09:35:02.352Z,26.95
2022-08-22T09:36:02.527Z,27.03
2022-08-22T09:37:02.914Z,27.09
2022-08-22T09:38:03.072Z,27.15
2022-08-22T09:39:02.666Z,27.22
2022-08-22T09:40:02.580Z,27.21
2022-08-22T09:41:03.131Z,27.24
2022-08-22T09:42:02.791Z,27.27
2022-08-22T09:43:02.677Z,27.30
2022-08-22T09:44:02.376Z,27.35
2022-08-22T09:45:02.284Z,27.38
2022-08-22T09:46:02.828Z,27.38
2022-08-22T09:47:02.458Z,27.36
2022-08-22T09:48:07.167Z,27.31
2022-08-22T09:49:02.365Z,27.28
2022-08-22T09:50:02.207Z,27.29
2022-08-22T09:51:20.004Z,27.31
2022-08-22T09:52:05.261Z,27.37
2022-08-22T09:53:02.460Z,27.43
2022-08-22T09:54:02.576Z,27.51
2022-08-22T09:55:02.583Z,27.56
2022-08-22T09:56:15.056Z,27.64
2022-08-22T09:57:02.550Z,27.67
2022-08-22T09:58:02.407Z,27.74
2022-08-22T09:59:02.742Z,27.81
2022-08-22T10:00:02.602Z,27.85
2022-08-22T10:01:02.226Z,27.88
2022-08-22T10:02:03.175Z,27.94
2022-08-22T10:03:03.272Z,28.03
2022-08-22T10:04:02.969Z,28.10
2022-08-22T10:05:04.080Z,28.16
2022-08-22T10:06:03.408Z,28.23
2022-08-22T10:07:03.313Z,28.31
2022-08-22T10:08:03.356Z,28.41
2022-08-22T10:09:03.123Z,28.49
2022-08-22T10:10:03.133Z,28.55
2022-08-22T10:11:03.151Z,28.60
2022-08-22T10:12:02.994Z,28.68
2022-08-22T10:13:03.149Z,28.76
2022-08-22T10:14:03.052Z,28.83
2022-08-22T10:15:02.907Z,28.90
2022-08-22T10:16:03.079Z,28.98
2022-08-22T10:17:03.424Z,29.00
2022-08-22T10:18:02.903Z,29.04
2022-08-22T10:19:03.025Z,29.10
2022-08-22T10:20:03.191Z,29.16
2022-08-22T10:21:03.270Z,29.16
2022-08-22T10:22:03.194Z,29.23
2022-08-22T10:23:03.388Z,29.26
2022-08-22T10:24:02.676Z,29.30
2022-08-22T10:25:03.159Z,29.31
2022-08-22T10:26:03.271Z,29.35
2022-08-22T10:27:03.718Z,29.26
2022-08-22T10:28:03.739Z,29.18
2022-08-22T10:29:03.367Z,29.14
2022-08-22T10:30:03.501Z,29.16
2022-08-22T10:31:03.380Z,29.17
2022-08-22T10:32:07.743Z,29.20
2022-08-22T10:33:04.164Z,29.25
2022-08-22T10:34:04.071Z,29.30
2022-08-22T10:35:03.625Z,29.32
2022-08-22T10:36:05.017Z,29.37
2022-08-22T10:37:03.851Z,29.39
2022-08-22T10:38:03.399Z,29.42
2022-08-22T10:39:09.406Z,29.46
2022-08-22T10:40:03.462Z,29.52
2022-08-22T10:41:03.486Z,29.56
2022-08-22T10:42:03.025Z,29.62
2022-08-22T10:43:03.170Z,29.65
2022-08-22T10:44:04.262Z,29.58
2022-08-22T10:45:03.185Z,29.64
2022-08-22T10:46:03.493Z,29.65
2022-08-22T10:47:02.971Z,29.71
2022-08-22T10:48:03.169Z,29.73
2022-08-22T10:49:07.903Z,29.79
2022-08-22T10:50:03.338Z,29.84
2022-08-22T10:51:03.647Z,29.81
2022-08-22T10:52:14.694Z,29.83
2022-08-22T10:53:03.693Z,29.87
2022-08-22T10:54:03.858Z,29.91
2022-08-22T10:55:05.765Z,29.97
2022-08-22T10:56:03.837Z,29.99
2022-08-22T10:57:03.451Z,30.01
2022-08-22T10:58:03.465Z,30.06
2022-08-22T10:59:04.148Z,30.11
2022-08-22T11:00:03.993Z,30.16
2022-08-22T11:01:37.942Z,30.24
2022-08-22T11:02:04.152Z,30.33
2022-08-22T11:03:02.606Z,30.41
2022-08-22T11:04:02.672Z,30.49
2022-08-22T11:05:02.831Z,30.58
2022-08-22T11:06:02.697Z,30.68
2022-08-22T11:07:02.192Z,30.79
2022-08-22T11:08:02.745Z,30.88
2022-08-22T11:09:02.672Z,30.98
2022-08-22T11:10:02.647Z,31.03
2022-08-22T11:11:03.007Z,31.06
2022-08-22T11:12:04.443Z,31.10
2022-08-22T11:13:03.152Z,31.13
2022-08-22T11:14:02.674Z,31.17
2022-08-22T11:15:03.148Z,31.21
2022-08-22T11:16:04.403Z,31.28
2022-08-22T11:17:23.611Z,31.33
2022-08-22T11:18:02.314Z,31.38
2022-08-22T11:19:14.647Z,31.40
2022-08-22T11:20:02.574Z,31.43
2022-08-22T11:21:02.900Z,31.42
2022-08-22T11:22:03.775Z,31.46
2022-08-22T11:23:02.928Z,31.51
2022-08-22T11:24:03.057Z,31.58
2022-08-22T11:25:04.706Z,31.62
2022-08-22T11:26:05.052Z,31.66
2022-08-22T11:27:02.591Z,31.70
2022-08-22T11:28:03.439Z,31.75
2022-08-22T11:29:13.553Z,31.77
2022-08-22T11:30:03.492Z,31.85
2022-08-22T11:31:02.951Z,31.88
2022-08-22T11:32:06.431Z,31.90
2022-08-22T11:33:02.989Z,31.96
2022-08-22T11:34:02.584Z,31.98
2022-08-22T11:35:02.575Z,31.99
2022-08-22T11:36:04.605Z,32.01
2022-08-22T11:37:02.775Z,32.02
2022-08-22T11:38:03.043Z,32.04
2022-08-22T11:39:02.800Z,32.09
2022-08-22T11:40:02.919Z,32.08
2022-08-22T11:41:02.939Z,32.11
2022-08-22T11:42:02.431Z,32.14
2022-08-22T11:43:03.764Z,32.18
2022-08-22T11:44:03.616Z,32.17
2022-08-22T11:45:02.839Z,32.14
2022-08-22T11:46:02.965Z,32.12
2022-08-22T11:47:02.976Z,32.14
2022-08-22T11:48:03.773Z,32.13
2022-08-22T11:49:03.776Z,32.14
2022-08-22T11:50:03.594Z,32.14
2022-08-22T11:51:03.345Z,32.19
2022-08-22T11:52:03.726Z,32.21
2022-08-22T11:53:07.593Z,32.16
2022-08-22T11:54:03.790Z,32.17
2022-08-22T11:55:03.953Z,32.17
2022-08-22T11:56:05.442Z,32.20
2022-08-22T11:57:03.903Z,32.25
2022-08-22T11:58:03.514Z,32.30
2022-08-22T11:59:03.440Z,32.36
2022-08-22T12:00:03.388Z,32.42
2022-08-22T12:01:03.388Z,32.45
2022-08-22T12:02:03.992Z,32.51
2022-08-22T12:03:03.133Z,32.57
2022-08-22T12:04:03.431Z,32.59
2022-08-22T12:05:03.598Z,32.64
2022-08-22T12:06:03.801Z,32.71
2022-08-22T12:07:03.523Z,32.80
2022-08-22T12:08:03.041Z,32.88
2022-08-22T12:09:03.025Z,32.95
2022-08-22T12:10:02.906Z,32.95
2022-08-22T12:11:02.654Z,32.96
2022-08-22T12:12:04.709Z,33.01
2022-08-22T12:13:02.850Z,32.98
2022-08-22T12:14:06.050Z,32.97
2022-08-22T12:15:03.371Z,33.02
2022-08-22T12:16:03.087Z,33.03
2022-08-22T12:17:03.253Z,33.06
2022-08-22T12:18:02.676Z,33.11
2022-08-22T12:19:02.823Z,33.16
2022-08-22T12:20:18.782Z,33.24
2022-08-22T12:21:02.862Z,33.31
2022-08-22T12:22:02.740Z,33.40
2022-08-22T12:23:02.991Z,33.46
2022-08-22T12:24:06.037Z,33.57
2022-08-22T12:25:03.338Z,33.67
2022-08-22T12:26:02.558Z,33.67
2022-08-22T12:27:03.073Z,33.68
2022-08-22T12:28:03.197Z,33.71
2022-08-22T12:29:03.529Z,33.73
2022-08-22T12:30:03.578Z,33.78
2022-08-22T12:31:03.508Z,33.82
2022-08-22T12:32:03.683Z,33.91
2022-08-22T12:33:02.679Z,34.00
2022-08-22T12:34:02.829Z,34.06
2022-08-22T12:35:02.631Z,34.15
2022-08-22T12:36:02.784Z,34.24
2022-08-22T12:37:02.953Z,34.33
2022-08-22T12:38:03.834Z,34.43
2022-08-22T12:39:03.282Z,34.55
2022-08-22T12:40:03.412Z,34.66
2022-08-22T12:41:03.290Z,34.75
2022-08-22T12:42:04.124Z,34.82
2022-08-22T12:43:03.439Z,34.89
2022-08-22T12:44:04.042Z,34.94
2022-08-22T12:45:03.902Z,35.00
2022-08-22T12:46:03.936Z,35.02
2022-08-22T12:47:04.281Z,35.03